Time;durP1;ratioP1;P1;durP2;ratioP2;P2;SDS_P1;SDS_P2;PMS_P1;PMS_P2;Temp;Humidity;BMP_temperature;BMP_pressure;BME280_temperature;BME280_humidity;BME280_pressure;Samples;Min_cycle;Max_cycle;Signal;HPM_P1;HPM_P2
2021/11/10 00:00:53;;;;;;;29.77;7.05;;;11.30;99.90;;;;;;4885173;29;20045;-83
2021/11/10 00:03:19;;;;;;;26.38;6.50;;;11.40;99.90;;;;;;4876002;29;20343;-84
2021/11/10 00:05:46;;;;;;;24.77;6.82;;;11.30;99.90;;;;;;4867733;29;20036;-85
2021/11/10 00:08:11;;;;;;;18.10;6.70;;;11.30;99.90;;;;;;4878629;29;20049;-82
2021/11/10 00:10:37;;;;;;;19.88;7.18;;;11.30;99.90;;;;;;4884027;29;20021;-80
2021/11/10 00:13:18;;;;;;;24.40;8.20;;;11.30;99.90;;;;;;4883654;29;20022;-82
2021/11/10 00:15:49;;;;;;;21.42;6.30;;;11.40;99.90;;;;;;4854130;29;20046;-82
2021/11/10 00:18:16;;;;;;;24.27;7.55;;;11.30;99.90;;;;;;4868219;29;20033;-84
2021/11/10 00:20:43;;;;;;;25.73;6.97;;;11.30;99.90;;;;;;4861119;29;20480;-85
2021/11/10 00:23:09;;;;;;;28.60;8.20;;;11.30;99.90;;;;;;4878313;29;20120;-85
2021/11/10 00:25:34;;;;;;;22.50;6.93;;;11.30;99.90;;;;;;4871088;29;20064;-84
2021/11/10 00:28:00;;;;;;;21.30;6.55;;;11.30;99.90;;;;;;4867465;29;20037;-85
2021/11/10 00:30:26;;;;;;;23.98;6.90;;;11.30;99.90;;;;;;4866768;29;20026;-83
2021/11/10 00:32:52;;;;;;;20.45;6.63;;;11.30;99.90;;;;;;4863698;29;20480;-85
2021/11/10 00:35:18;;;;;;;21.77;7.90;;;11.30;99.90;;;;;;4863702;29;20032;-85
2021/11/10 00:37:43;;;;;;;22.63;7.65;;;11.30;99.90;;;;;;4878807;29;20495;-84
2021/11/10 00:40:09;;;;;;;27.75;7.80;;;11.30;99.90;;;;;;4890609;29;20029;-87
2021/11/10 00:42:35;;;;;;;27.30;7.70;;;11.30;99.90;;;;;;4866870;29;20072;-86
2021/11/10 00:45:01;;;;;;;21.40;6.50;;;11.30;99.90;;;;;;4883748;29;20029;-85
2021/11/10 00:47:27;;;;;;;21.38;6.85;;;11.30;99.90;;;;;;4884030;29;20032;-88
2021/11/10 00:49:52;;;;;;;26.02;6.93;;;11.30;99.90;;;;;;4867720;29;20033;-88
2021/11/10 00:52:18;;;;;;;19.60;5.75;;;11.30;99.90;;;;;;4866882;29;20025;-87
2021/11/10 00:54:43;;;;;;;28.65;7.22;;;11.40;99.90;;;;;;4883658;29;20033;-87
2021/11/10 00:57:09;;;;;;;17.08;5.90;;;11.30;99.90;;;;;;4882947;29;20021;-87
2021/11/10 00:59:35;;;;;;;13.13;7.63;;;11.30;99.90;;;;;;4864763;29;20089;-87
2021/11/10 01:02:00;;;;;;;17.35;6.45;;;11.30;99.90;;;;;;4882816;29;20100;-87
2021/11/10 01:04:26;;;;;;;14.68;6.10;;;11.30;99.90;;;;;;4883098;29;20367;-87
2021/11/10 01:06:52;;;;;;;19.40;6.25;;;11.30;99.90;;;;;;4874471;29;20394;-87
2021/11/10 01:09:17;;;;;;;19.70;7.40;;;11.30;99.90;;;;;;4865137;29;20033;-87
2021/11/10 01:11:45;;;;;;;16.52;6.47;;;11.30;99.90;;;;;;4865702;29;20025;-87
2021/11/10 01:14:12;;;;;;;;;;;11.30;99.90;;;;;;4883067;29;20052;-87
2021/11/10 01:16:38;;;;;;;16.98;6.53;;;11.30;99.90;;;;;;4880410;29;19912;-87
2021/11/10 01:19:04;;;;;;;24.60;6.95;;;11.40;99.90;;;;;;4865625;29;20044;-87
2021/11/10 01:21:30;;;;;;;18.63;5.88;;;11.40;99.90;;;;;;4885965;29;20060;-86
2021/11/10 01:23:55;;;;;;;17.02;6.25;;;11.40;99.90;;;;;;4882418;29;20033;-87
2021/11/10 01:26:21;;;;;;;22.52;6.80;;;11.40;99.90;;;;;;4881226;29;20403;-87
2021/11/10 01:28:47;;;;;;;21.77;6.15;;;11.40;99.90;;;;;;4862648;29;20039;-88
2021/11/10 01:31:12;;;;;;;13.30;5.80;;;11.40;99.90;;;;;;4865599;29;20096;-86
2021/11/10 01:33:39;;;;;;;17.25;5.85;;;11.40;99.90;;;;;;4880744;29;20032;-86
2021/11/10 01:36:04;;;;;;;24.77;8.63;;;11.40;99.90;;;;;;4862838;29;20033;-87
2021/11/10 01:38:30;;;;;;;24.08;7.13;;;11.30;99.90;;;;;;4881722;29;20459;-87
2021/11/10 01:40:56;;;;;;;20.00;5.78;;;11.30;99.90;;;;;;4865165;29;20060;-87
2021/11/10 01:43:22;;;;;;;17.67;6.32;;;11.30;99.90;;;;;;4876713;29;20412;-86
2021/11/10 01:45:48;;;;;;;17.02;6.07;;;11.30;99.90;;;;;;4881190;29;20052;-86
2021/11/10 01:48:15;;;;;;;24.50;6.13;;;11.20;99.90;;;;;;4860982;29;20029;-87
2021/11/10 01:50:41;;;;;;;23.88;6.53;;;11.20;99.90;;;;;;4861989;29;20017;-87
2021/11/10 01:53:09;;;;;;;17.92;5.85;;;11.20;99.90;;;;;;4880083;29;20368;-87
2021/11/10 01:55:35;;;;;;;;;;;11.10;99.90;;;;;;4881323;29;20112;-87
2021/11/10 01:58:01;;;;;;;20.45;5.88;;;11.10;99.90;;;;;;4863780;29;19958;-86
2021/11/10 02:00:31;;;;;;;14.73;5.80;;;11.10;99.90;;;;;;4877314;29;20410;-87
2021/11/10 02:02:57;;;;;;;31.35;7.28;;;11.00;99.90;;;;;;4877267;29;20033;-88
2021/11/10 02:05:23;;;;;;;16.38;5.35;;;11.00;99.90;;;;;;4865420;29;20045;-88
2021/11/10 02:07:50;;;;;;;33.60;7.20;;;11.00;99.90;;;;;;4864998;29;20048;-88
2021/11/10 02:10:19;;;;;;;19.40;7.28;;;11.00;99.90;;;;;;4856074;29;20033;-88
2021/11/10 02:12:46;;;;;;;15.90;6.25;;;11.00;99.90;;;;;;4858132;29;20037;-86
2021/11/10 02:15:15;;;;;;;14.32;5.30;;;11.00;99.90;;;;;;4875804;29;20167;-86
2021/11/10 02:17:41;;;;;;;17.63;6.43;;;11.00;99.90;;;;;;4861265;29;20017;-86
2021/11/10 02:20:10;;;;;;;18.90;6.40;;;10.90;99.90;;;;;;4856544;29;20070;-87
2021/11/10 02:22:37;;;;;;;20.33;6.40;;;10.80;99.90;;;;;;4850289;29;20022;-87
2021/11/10 02:25:08;;;;;;;15.73;7.03;;;10.70;99.90;;;;;;4866863;29;20025;-86
2021/11/10 02:27:35;;;;;;;23.23;7.22;;;10.70;99.90;;;;;;4866823;29;20060;-85
2021/11/10 02:30:06;;;;;;;23.05;6.32;;;10.70;99.90;;;;;;4867434;29;20108;-85
2021/11/10 02:32:32;;;;;;;27.35;8.07;;;10.60;99.90;;;;;;4864163;29;20025;-85
2021/11/10 02:34:58;;;;;;;26.90;6.72;;;10.70;99.90;;;;;;4864226;29;20563;-85
2021/11/10 02:37:23;;;;;;;22.67;7.18;;;10.70;99.90;;;;;;4865317;29;20037;-84
2021/11/10 02:39:51;;;;;;;27.67;7.75;;;10.70;99.90;;;;;;4879754;29;20510;-84
2021/11/10 02:42:18;;;;;;;27.60;9.05;;;10.70;99.90;;;;;;4850484;29;20105;-87
2021/11/10 02:44:47;;;;;;;30.35;7.95;;;10.60;99.90;;;;;;4866501;29;20044;-86
2021/11/10 02:47:13;;;;;;;22.83;7.38;;;10.60;99.90;;;;;;4871456;29;20116;-87
2021/11/10 02:49:39;;;;;;;21.00;7.65;;;10.50;99.90;;;;;;4884512;29;20120;-86
2021/11/10 02:52:08;;;;;;;17.75;6.80;;;10.50;99.90;;;;;;4868732;29;20525;-88
2021/11/10 02:54:39;;;;;;;20.50;8.13;;;10.40;99.90;;;;;;4866801;29;20503;-87
2021/11/10 02:57:06;;;;;;;26.35;7.88;;;10.40;99.90;;;;;;4866200;29;20037;-86
2021/11/10 02:59:32;;;;;;;27.80;7.82;;;10.40;99.90;;;;;;4863960;29;20094;-85
2021/11/10 03:01:59;;;;;;;23.52;9.15;;;10.30;99.90;;;;;;4867914;29;20033;-87
2021/11/10 03:04:27;;;;;;;18.37;7.97;;;10.30;99.90;;;;;;4867313;29;20061;-85
2021/11/10 03:06:55;;;;;;;21.00;8.10;;;10.30;99.90;;;;;;4867592;29;20033;-87
2021/11/10 03:09:22;;;;;;;21.08;7.70;;;10.20;99.90;;;;;;4865468;29;20067;-88
2021/11/10 03:11:51;;;;;;;20.55;7.53;;;10.20;99.90;;;;;;4866758;29;20031;-86
2021/11/10 03:14:17;;;;;;;21.73;7.97;;;10.20;99.90;;;;;;4867265;29;20029;-86
2021/11/10 03:16:43;;;;;;;27.90;8.65;;;10.10;99.90;;;;;;4867162;29;20029;-87
2021/11/10 03:19:10;;;;;;;24.70;9.27;;;10.10;99.90;;;;;;4883558;29;20386;-86
2021/11/10 03:21:36;;;;;;;27.52;9.23;;;10.10;99.90;;;;;;4862997;29;20136;-87
2021/11/10 03:24:02;;;;;;;32.45;8.25;;;10.00;99.90;;;;;;4881768;29;20048;-87
2021/11/10 03:26:28;;;;;;;22.83;8.43;;;10.00;99.90;;;;;;4864567;29;20068;-87
2021/11/10 03:28:54;;;;;;;26.35;8.32;;;10.00;99.90;;;;;;4863643;29;20025;-84
2021/11/10 03:31:20;;;;;;;30.00;7.57;;;10.00;99.90;;;;;;4878882;29;20044;-86
2021/11/10 03:33:46;;;;;;;25.75;8.18;;;9.90;99.90;;;;;;4877819;29;20410;-87
2021/11/10 03:36:11;;;;;;;23.70;8.55;;;9.90;99.90;;;;;;4881632;29;20017;-87
2021/11/10 03:38:37;;;;;;;26.13;8.93;;;9.80;99.90;;;;;;4884120;29;20129;-88
2021/11/10 03:41:03;;;;;;;21.90;7.93;;;9.80;99.90;;;;;;4867251;29;20025;-86
2021/11/10 03:43:29;;;;;;;31.60;8.90;;;9.80;99.90;;;;;;4866137;29;20029;-84
2021/11/10 03:45:55;;;;;;;16.75;7.97;;;9.80;99.90;;;;;;4867100;29;20155;-85
2021/11/10 03:48:20;;;;;;;27.55;8.65;;;9.80;99.90;;;;;;4867331;29;20081;-86
2021/11/10 03:50:46;;;;;;;29.08;8.77;;;9.90;99.90;;;;;;4870466;29;20033;-85
2021/11/10 03:53:12;;;;;;;26.73;8.88;;;9.80;99.90;;;;;;4862770;29;20037;-87
2021/11/10 03:55:37;;;;;;;21.00;7.88;;;9.80;99.90;;;;;;4864867;29;20029;-87
2021/11/10 03:58:08;;;;;;;14.15;7.10;;;9.80;99.90;;;;;;4863460;29;20029;-85
2021/11/10 04:00:35;;;;;;;24.88;8.23;;;9.80;99.90;;;;;;4865812;29;20056;-87
2021/11/10 04:03:00;;;;;;;25.63;8.27;;;9.80;99.90;;;;;;4866540;29;20435;-88
2021/11/10 04:05:27;;;;;;;25.05;8.45;;;9.80;99.90;;;;;;4882258;29;20037;-86
2021/11/10 04:07:53;;;;;;;22.90;8.23;;;9.70;99.90;;;;;;4864682;29;20058;-88
2021/11/10 04:10:19;;;;;;;22.15;8.85;;;9.80;99.90;;;;;;4865807;29;20044;-88
2021/11/10 04:12:45;;;;;;;30.50;10.10;;;9.80;99.90;;;;;;4876223;29;20089;-86
2021/11/10 04:15:10;;;;;;;29.73;7.70;;;9.70;99.90;;;;;;4863665;29;20492;-89
2021/11/10 04:17:36;;;;;;;30.13;8.65;;;9.70;99.90;;;;;;4867283;29;20036;-87
2021/11/10 04:20:03;;;;;;;18.48;8.10;;;9.60;99.90;;;;;;4863679;29;20081;-88
2021/11/10 04:22:32;;;;;;;23.30;8.25;;;9.60;99.90;;;;;;4865099;29;20034;-88
2021/11/10 04:24:57;;;;;;;22.67;8.40;;;9.60;99.90;;;;;;4864628;29;20535;-86
2021/11/10 04:27:23;;;;;;;22.52;7.07;;;9.60;99.90;;;;;;4864166;29;20033;-87
2021/11/10 04:29:50;;;;;;;24.88;8.40;;;9.70;99.90;;;;;;4879076;29;20390;-88
2021/11/10 04:32:17;;;;;;;17.83;7.47;;;9.70;99.90;;;;;;4867059;29;20025;-87
2021/11/10 04:34:44;;;;;;;28.73;8.70;;;9.60;99.90;;;;;;4871923;29;20282;-87
2021/11/10 04:37:14;;;;;;;24.03;8.43;;;9.60;99.90;;;;;;4861608;29;20062;-87
2021/11/10 04:39:41;;;;;;;23.25;7.85;;;9.50;99.90;;;;;;4863309;29;20080;-87
2021/11/10 04:42:08;;;;;;;22.97;8.10;;;9.50;99.90;;;;;;4864483;29;20021;-86
2021/11/10 04:44:35;;;;;;;25.80;8.02;;;9.50;99.90;;;;;;4875120;29;20333;-88
2021/11/10 04:47:01;;;;;;;20.10;9.60;;;9.50;99.90;;;;;;4864092;29;20105;-88
2021/11/10 04:49:29;;;;;;;23.00;9.15;;;9.50;99.90;;;;;;4881448;29;20037;-88
2021/11/10 04:51:58;;;;;;;27.85;8.93;;;9.50;99.90;;;;;;4866602;29;20020;-88
2021/11/10 04:54:29;;;;;;;23.55;8.68;;;9.50;99.90;;;;;;4879370;29;20022;-89
2021/11/10 04:56:55;;;;;;;18.13;8.02;;;9.50;99.90;;;;;;4861936;29;20040;-89
2021/11/10 04:59:21;;;;;;;21.80;8.25;;;9.40;99.90;;;;;;4871078;29;20044;-86
2021/11/10 05:04:35;;;;;;;20.95;7.88;;;9.40;99.90;;;;;;4874788;29;20080;-86
2021/11/10 05:07:02;;;;;;;21.60;8.73;;;9.40;99.90;;;;;;4880674;29;20040;-86
2021/11/10 05:09:29;;;;;;;24.60;8.23;;;9.50;99.90;;;;;;4859539;29;20040;-87
2021/11/10 05:11:55;;;;;;;21.15;10.02;;;9.50;99.90;;;;;;4865189;29;20029;-87
2021/11/10 05:14:21;;;;;;;17.50;7.30;;;9.50;99.90;;;;;;4864555;29;20068;-86
2021/11/10 05:16:47;;;;;;;19.30;7.68;;;9.50;99.90;;;;;;4872507;29;20103;-85
2021/11/10 05:19:13;;;;;;;29.23;9.10;;;9.50;99.90;;;;;;4864740;29;20025;-85
2021/11/10 05:21:38;;;;;;;28.83;8.65;;;9.50;99.90;;;;;;4871786;29;20089;-85
2021/11/10 05:24:04;;;;;;;25.13;8.20;;;9.50;99.90;;;;;;4862857;29;20112;-84
2021/11/10 05:26:31;;;;;;;25.70;8.18;;;9.50;99.90;;;;;;4876526;29;20053;-82
2021/11/10 05:28:57;;;;;;;27.20;7.65;;;9.50;99.90;;;;;;4881944;29;20053;-86
2021/11/10 05:31:23;;;;;;;21.92;7.65;;;9.40;99.90;;;;;;4871171;29;20033;-86
2021/11/10 05:33:49;;;;;;;19.58;8.32;;;9.50;99.90;;;;;;4877636;29;20029;-88
2021/11/10 05:36:15;;;;;;;17.50;7.25;;;9.50;99.90;;;;;;4863941;29;20041;-87
2021/11/10 05:38:41;;;;;;;23.38;6.93;;;9.60;99.90;;;;;;4882232;29;20040;-88
2021/11/10 05:41:07;;;;;;;23.02;8.15;;;9.60;99.90;;;;;;4866675;29;20021;-88
2021/11/10 05:43:33;;;;;;;21.23;7.45;;;9.60;99.90;;;;;;4888531;29;20057;-88
2021/11/10 05:45:59;;;;;;;29.27;8.02;;;9.60;99.90;;;;;;4881496;29;20039;-86
2021/11/10 05:48:25;;;;;;;22.90;7.70;;;9.50;99.90;;;;;;4863198;29;20092;-86
2021/11/10 05:50:51;;;;;;;21.33;8.27;;;9.40;99.90;;;;;;4864950;29;20061;-88
2021/11/10 05:53:17;;;;;;;25.10;6.75;;;9.40;99.90;;;;;;4864454;29;20518;-87
2021/11/10 05:55:44;;;;;;;30.50;7.40;;;9.40;99.90;;;;;;4881389;29;20029;-87
2021/11/10 05:58:10;;;;;;;21.08;7.25;;;9.30;99.90;;;;;;4876030;29;20025;-86
2021/11/10 06:00:36;;;;;;;28.20;8.10;;;9.40;99.90;;;;;;4864126;29;20092;-88
2021/11/10 06:03:02;;;;;;;25.08;7.65;;;9.40;99.90;;;;;;4864051;29;20098;-87
2021/11/10 06:05:28;;;;;;;26.38;7.50;;;9.30;99.90;;;;;;4863331;29;20038;-88
2021/11/10 06:07:55;;;;;;;25.13;9.13;;;9.40;99.90;;;;;;4881879;29;20084;-87
2021/11/10 06:10:21;;;;;;;29.48;6.95;;;9.40;99.90;;;;;;4881648;29;20025;-88
2021/11/10 06:12:48;;;;;;;28.10;7.70;;;9.40;99.90;;;;;;4876504;29;20068;-86
2021/11/10 06:15:14;;;;;;;21.50;7.40;;;9.30;99.90;;;;;;4864535;29;20491;-85
2021/11/10 06:17:39;;;;;;;32.97;8.13;;;9.40;99.90;;;;;;4875926;29;20105;-86
2021/11/10 06:20:07;;;;;;;22.15;8.48;;;9.40;99.90;;;;;;4861045;29;20502;-87
2021/11/10 06:22:32;;;;;;;25.92;8.10;;;9.40;99.90;;;;;;4862873;29;20030;-85
2021/11/10 06:24:58;;;;;;;20.90;7.80;;;9.40;99.90;;;;;;4863559;29;20089;-87
2021/11/10 06:27:25;;;;;;;24.50;8.35;;;9.40;99.90;;;;;;4879572;29;20041;-85
2021/11/10 06:29:50;;;;;;;26.73;7.85;;;9.40;99.90;;;;;;4864037;29;20593;-86
2021/11/10 06:32:16;;;;;;;33.67;8.73;;;9.40;99.90;;;;;;4863762;29;20077;-87
2021/11/10 06:34:42;;;;;;;28.83;8.68;;;9.30;99.90;;;;;;4864753;29;20021;-87
2021/11/10 06:37:08;;;;;;;20.73;7.13;;;9.30;99.90;;;;;;4860487;29;20038;-88
2021/11/10 06:39:34;;;;;;;20.88;7.40;;;9.30;99.90;;;;;;4869125;29;20025;-86
2021/11/10 06:42:00;;;;;;;31.92;7.90;;;9.30;99.90;;;;;;4845121;29;20033;-86
2021/11/10 06:44:26;;;;;;;21.38;7.47;;;9.20;99.90;;;;;;4856339;29;20033;-86
2021/11/10 06:46:52;;;;;;;13.05;6.70;;;9.30;99.90;;;;;;4860099;29;20066;-88
2021/11/10 06:49:17;;;;;;;29.90;7.85;;;9.30;99.90;;;;;;4850724;29;20058;-88
2021/11/10 06:51:43;;;;;;;18.00;7.35;;;9.20;99.90;;;;;;4844560;29;20484;-88
2021/11/10 06:54:10;;;;;;;22.58;6.90;;;9.20;99.90;;;;;;4857038;29;20091;-88
2021/11/10 06:56:36;;;;;;;19.80;6.97;;;9.20;99.90;;;;;;4858030;29;20029;-87
2021/11/10 06:59:03;;;;;;;16.02;6.32;;;9.30;99.90;;;;;;4846531;29;20125;-86
2021/11/10 07:01:29;;;;;;;24.48;7.63;;;9.30;99.90;;;;;;4859061;29;20037;-86
2021/11/10 07:03:55;;;;;;;18.88;6.13;;;9.30;99.90;;;;;;4858059;29;20042;-86
2021/11/10 07:06:20;;;;;;;28.83;8.20;;;9.30;99.90;;;;;;4870865;29;20089;-85
2021/11/10 07:08:46;;;;;;;29.02;8.23;;;9.30;99.90;;;;;;4860923;29;20050;-86
2021/11/10 07:11:12;;;;;;;24.73;7.43;;;9.30;99.90;;;;;;4863294;29;20458;-85
2021/11/10 07:13:37;;;;;;;29.83;8.68;;;9.30;99.90;;;;;;4864143;29;20101;-86
2021/11/10 07:16:04;;;;;;;22.98;7.38;;;9.40;99.90;;;;;;4848330;29;20524;-86
2021/11/10 07:18:29;;;;;;;18.85;7.85;;;9.40;99.90;;;;;;4863300;29;20399;-88
2021/11/10 07:20:55;;;;;;;16.50;5.95;;;9.50;99.90;;;;;;4862295;29;20033;-87
2021/11/10 07:23:21;;;;;;;15.07;7.20;;;9.50;99.90;;;;;;4853543;29;20501;-89
2021/11/10 07:25:47;;;;;;;25.73;7.80;;;9.50;99.90;;;;;;4866736;29;20056;-89
2021/11/10 07:28:13;;;;;;;23.63;7.50;;;9.50;99.90;;;;;;4858000;29;20500;-87
2021/11/10 07:30:40;;;;;;;23.95;9.30;;;9.50;99.90;;;;;;4844545;29;20089;-88
2021/11/10 07:33:07;;;;;;;19.25;6.95;;;9.50;99.90;;;;;;4866072;29;20463;-88
2021/11/10 07:35:33;;;;;;;21.17;7.30;;;9.50;99.90;;;;;;4870038;29;20109;-87
2021/11/10 07:37:58;;;;;;;28.77;7.72;;;9.60;99.90;;;;;;4881069;29;20049;-85
2021/11/10 07:40:25;;;;;;;23.55;8.63;;;9.60;99.90;;;;;;4868038;29;20033;-87
2021/11/10 07:42:51;;;;;;;30.33;9.35;;;9.60;99.90;;;;;;4865090;29;20510;-87
2021/11/10 07:45:30;;;;;;;26.70;8.88;;;9.70;99.90;;;;;;4865072;29;20025;-87
2021/11/10 07:47:59;;;;;;;32.40;9.38;;;9.60;99.90;;;;;;4866907;29;20069;-88
2021/11/10 07:50:25;;;;;;;34.15;11.23;;;9.70;99.90;;;;;;4866435;29;20037;-87
2021/11/10 07:52:51;;;;;;;32.78;10.20;;;9.70;99.90;;;;;;4868247;29;20053;-87
2021/11/10 07:55:18;;;;;;;32.28;10.57;;;9.70;99.90;;;;;;4864880;29;20479;-87
2021/11/10 07:57:43;;;;;;;31.83;11.43;;;9.70;99.90;;;;;;4866492;29;20432;-87
2021/11/10 08:00:15;;;;;;;33.88;12.82;;;9.70;99.90;;;;;;4866763;29;20038;-85
2021/11/10 08:02:42;;;;;;;33.90;10.18;;;9.80;99.90;;;;;;4879945;29;20085;-86
2021/11/10 08:05:10;;;;;;;34.00;11.27;;;9.80;99.90;;;;;;4864598;29;20045;-86
2021/11/10 08:07:36;;;;;;;35.28;10.73;;;9.80;99.90;;;;;;4863681;29;20037;-85
2021/11/10 08:10:03;;;;;;;31.45;11.15;;;9.80;99.90;;;;;;4864423;29;20040;-86
2021/11/10 08:12:31;;;;;;;29.75;10.43;;;9.80;99.90;;;;;;4864415;29;20037;-84
2021/11/10 08:14:58;;;;;;;32.83;11.35;;;9.70;99.90;;;;;;4857934;29;20028;-83
2021/11/10 08:17:25;;;;;;;31.42;9.95;;;9.60;99.90;;;;;;4854601;29;20061;-84
2021/11/10 08:19:50;;;;;;;34.80;11.40;;;9.60;99.90;;;;;;4862657;29;20046;-81
2021/11/10 08:22:16;;;;;;;37.08;9.38;;;9.50;99.90;;;;;;4862944;29;20093;-80
2021/11/10 08:24:43;;;;;;;30.90;10.30;;;9.50;99.90;;;;;;4860268;29;20045;-81
2021/11/10 08:27:09;;;;;;;24.67;9.50;;;9.50;99.90;;;;;;4860785;29;20505;-80
2021/11/10 08:29:34;;;;;;;30.42;9.57;;;9.50;99.90;;;;;;4861165;29;20073;-80
2021/11/10 08:32:00;;;;;;;27.00;9.20;;;9.50;99.90;;;;;;4861392;29;20045;-80
2021/11/10 08:34:26;;;;;;;33.00;10.73;;;9.50;99.90;;;;;;4875295;29;20033;-82
2021/11/10 08:36:51;;;;;;;36.97;10.35;;;9.50;99.90;;;;;;4850621;29;20041;-81
2021/11/10 08:39:18;;;;;;;32.80;9.48;;;9.50;99.90;;;;;;4872847;29;20087;-84
2021/11/10 08:41:47;;;;;;;23.33;9.48;;;9.50;99.90;;;;;;4864224;29;20037;-82
2021/11/10 08:44:15;;;;;;;31.63;10.18;;;9.60;99.90;;;;;;4866399;29;20064;-81
2021/11/10 08:46:41;;;;;;;32.08;9.30;;;9.60;99.90;;;;;;4864808;29;20029;-83
2021/11/10 08:49:07;;;;;;;31.98;9.18;;;9.60;99.90;;;;;;4876550;29;20037;-82
2021/11/10 08:51:34;;;;;;;25.10;8.20;;;9.60;99.90;;;;;;4864141;29;20029;-83
2021/11/10 08:54:00;;;;;;;23.95;9.48;;;9.50;99.90;;;;;;4865578;29;20021;-84
2021/11/10 08:56:25;;;;;;;28.92;9.68;;;9.60;99.90;;;;;;4881407;29;20021;-79
2021/11/10 08:58:51;;;;;;;28.30;8.98;;;9.60;99.90;;;;;;4863610;29;20391;-80
2021/11/10 09:01:17;;;;;;;29.77;9.60;;;9.70;99.90;;;;;;4863505;29;20025;-76
2021/11/10 09:03:43;;;;;;;21.50;8.85;;;9.70;99.90;;;;;;4880980;29;20057;-83
2021/11/10 09:06:11;;;;;;;31.33;11.15;;;9.80;99.90;;;;;;4866103;29;20045;-81
2021/11/10 09:08:37;;;;;;;31.65;9.45;;;9.80;99.90;;;;;;4868041;29;20064;-79
2021/11/10 09:11:03;;;;;;;37.58;9.75;;;9.90;99.90;;;;;;4855612;29;20042;-80
2021/11/10 09:13:30;;;;;;;36.20;10.98;;;9.90;99.90;;;;;;4880759;29;20434;-80
2021/11/10 09:15:57;;;;;;;36.80;10.80;;;10.00;99.90;;;;;;4863947;29;20029;-79
2021/11/10 09:18:23;;;;;;;36.40;12.90;;;10.10;99.90;;;;;;4863735;29;20040;-79
2021/11/10 09:20:49;;;;;;;50.10;13.07;;;10.20;99.90;;;;;;4863620;29;20616;-80
2021/11/10 09:23:17;;;;;;;40.92;14.35;;;10.20;99.90;;;;;;4864768;29;20037;-79
2021/11/10 09:25:44;;;;;;;;;;;10.20;99.90;;;;;;4881689;29;20483;-80
2021/11/10 09:28:13;;;;;;;42.72;15.10;;;10.20;99.90;;;;;;4854865;29;19919;-81
2021/11/10 09:30:41;;;;;;;48.72;14.63;;;10.30;99.90;;;;;;4856762;29;20037;-80
2021/11/10 09:33:08;;;;;;;;;;;10.30;99.90;;;;;;4865705;29;20517;-82
2021/11/10 09:35:35;;;;;;;38.50;12.40;;;10.40;99.90;;;;;;4865339;29;20326;-82
2021/11/10 09:38:02;;;;;;;35.28;10.63;;;10.40;99.90;;;;;;4865280;29;20041;-82
2021/11/10 09:40:30;;;;;;;33.40;10.70;;;10.50;99.90;;;;;;4883764;29;20116;-81
2021/11/10 09:42:59;;;;;;;37.13;12.57;;;10.60;99.90;;;;;;4880059;29;20048;-82
2021/11/10 09:45:25;;;;;;;37.83;11.30;;;10.70;99.90;;;;;;4901952;29;20110;-86
2021/11/10 09:47:51;;;;;;;37.60;9.85;;;10.80;99.90;;;;;;4876709;29;20026;-85
2021/11/10 09:50:21;;;;;;;26.05;10.27;;;10.90;99.90;;;;;;4868668;29;20068;-85
2021/11/10 09:52:48;;;;;;;26.70;9.63;;;11.00;99.90;;;;;;4892737;29;20048;-85
2021/11/10 09:55:17;;;;;;;39.63;9.52;;;11.00;99.90;;;;;;4898077;29;20026;-85
2021/11/10 09:57:43;;;;;;;34.70;9.38;;;11.10;99.90;;;;;;4884939;29;20044;-82
2021/11/10 10:00:13;;;;;;;30.08;9.70;;;11.20;99.90;;;;;;4894009;29;20017;-82
2021/11/10 10:02:41;;;;;;;27.13;8.85;;;11.20;99.90;;;;;;4887285;29;20187;-82
2021/11/10 10:05:07;;;;;;;25.50;8.35;;;11.20;99.90;;;;;;4884714;29;20020;-82
2021/11/10 10:07:35;;;;;;;25.38;8.80;;;11.20;99.90;;;;;;4894651;29;20013;-81
2021/11/10 10:10:02;;;;;;;19.35;6.28;;;11.20;99.90;;;;;;4884961;29;20045;-81
2021/11/10 10:12:27;;;;;;;35.28;9.85;;;11.30;99.90;;;;;;4888163;29;20028;-80
2021/11/10 10:14:55;;;;;;;24.30;7.90;;;11.30;99.90;;;;;;4902274;29;20025;-79
2021/11/10 10:17:42;;;;;;;30.73;9.30;;;11.30;99.90;;;;;;4904135;29;20025;-81
2021/11/10 10:20:38;;;;;;;30.30;9.35;;;11.30;99.90;;;;;;4887245;29;20032;-82
2021/11/10 10:23:07;;;;;;;24.73;9.23;;;11.30;99.90;;;;;;4887583;29;20029;-81
2021/11/10 10:26:02;;;;;;;21.55;8.80;;;11.30;99.90;;;;;;4898998;29;20033;-82
2021/11/10 10:28:32;;;;;;;27.52;7.97;;;11.20;99.90;;;;;;4883585;29;20104;-82
2021/11/10 10:31:10;;;;;;;30.48;8.05;;;11.30;99.90;;;;;;4887209;29;20043;-81
2021/11/10 10:33:42;;;;;;;24.17;7.45;;;11.30;99.90;;;;;;4886231;29;20025;-83
2021/11/10 10:36:10;;;;;;;21.05;7.18;;;11.40;99.90;;;;;;4887496;29;20025;-81
2021/11/10 10:38:46;;;;;;;20.95;8.23;;;11.40;99.90;;;;;;4862304;29;20034;-83
2021/11/10 10:41:12;;;;;;;25.02;7.85;;;11.50;99.90;;;;;;4869321;29;20042;-82
2021/11/10 10:44:05;;;;;;;29.40;7.93;;;11.50;99.90;;;;;;4855508;29;20018;-83
2021/11/10 10:46:34;;;;;;;19.95;7.20;;;11.60;99.90;;;;;;4844069;29;20038;-81
2021/11/10 10:49:16;;;;;;;24.00;7.97;;;11.60;99.90;;;;;;4842574;29;20038;-80
2021/11/10 10:52:07;;;;;;;27.02;8.13;;;11.70;99.90;;;;;;4850881;29;20053;-83
2021/11/10 10:54:33;;;;;;;21.58;8.07;;;11.70;99.90;;;;;;4835253;29;20052;-81
2021/11/10 10:57:00;;;;;;;19.02;7.07;;;11.80;99.90;;;;;;4847776;29;20104;-83
2021/11/10 10:59:31;;;;;;;26.65;7.72;;;11.80;99.90;;;;;;4845351;29;20044;-83
2021/11/10 11:01:58;;;;;;;27.20;8.23;;;11.80;99.90;;;;;;4846144;29;20065;-81
2021/11/10 11:04:31;;;;;;;25.83;7.97;;;11.90;99.90;;;;;;4845917;29;20049;-82
2021/11/10 11:07:08;;;;;;;20.23;8.23;;;11.90;99.90;;;;;;4846694;29;20022;-82
2021/11/10 11:09:43;;;;;;;30.73;8.05;;;11.90;99.90;;;;;;4843983;29;20117;-81
2021/11/10 11:15:02;;;;;;;19.35;8.23;;;12.00;99.90;;;;;;4833901;29;20037;-83
2021/11/10 11:17:31;;;;;;;21.17;7.60;;;12.00;99.90;;;;;;4841604;29;20031;-79
2021/11/10 11:19:57;;;;;;;23.45;7.13;;;11.90;99.90;;;;;;4843119;29;20496;-80
2021/11/10 11:22:30;;;;;;;22.60;8.77;;;11.90;99.90;;;;;;4858716;29;20029;-83
2021/11/10 11:24:57;;;;;;;17.42;7.47;;;11.80;99.90;;;;;;4847052;29;20488;-81
2021/11/10 11:27:30;;;;;;;19.15;7.72;;;11.90;99.90;;;;;;4862982;29;20104;-84
2021/11/10 11:30:12;;;;;;;33.42;9.75;;;11.90;99.90;;;;;;4848410;29;20045;-86
2021/11/10 11:32:43;;;;;;;19.48;7.25;;;11.90;99.90;;;;;;4848479;29;20151;-84
2021/11/10 11:35:25;;;;;;;28.13;7.82;;;11.80;99.90;;;;;;4836059;29;20468;-84
2021/11/10 11:37:53;;;;;;;20.88;6.82;;;11.90;99.90;;;;;;4860798;29;20086;-82
2021/11/10 11:40:20;;;;;;;22.58;7.60;;;11.90;99.90;;;;;;4865426;29;20060;-83
2021/11/10 11:42:48;;;;;;;17.98;6.97;;;11.90;99.90;;;;;;4867601;29;20044;-82
2021/11/10 11:45:16;;;;;;;20.35;7.38;;;11.90;99.90;;;;;;4884143;29;20029;-82
2021/11/10 11:47:42;;;;;;;;;;;11.90;99.90;;;;;;4884195;29;20025;-82
2021/11/10 11:50:09;;;;;;;13.25;6.82;;;11.90;99.90;;;;;;4870845;29;20003;-81
2021/11/10 11:52:37;;;;;;;25.73;7.63;;;11.90;99.90;;;;;;4871719;29;20029;-83
2021/11/10 11:55:12;;;;;;;23.25;8.73;;;11.90;99.90;;;;;;4866728;29;20121;-83
2021/11/10 11:57:40;;;;;;;24.20;7.85;;;11.90;99.90;;;;;;4879678;29;20032;-83
2021/11/10 12:00:06;;;;;;;;;;;12.00;99.90;;;;;;4855812;29;20034;-83
2021/11/10 12:02:44;;;;;;;20.05;7.82;;;11.90;99.90;;;;;;4863157;29;19919;-87
2021/11/10 12:05:34;;;;;;;17.65;7.65;;;12.00;99.90;;;;;;4864263;29;20049;-85
2021/11/10 12:08:00;;;;;;;21.33;8.05;;;11.90;99.90;;;;;;4848956;29;20038;-83
2021/11/10 12:10:33;;;;;;;22.38;7.93;;;11.90;99.90;;;;;;4863920;29;20044;-82
2021/11/10 12:13:14;;;;;;;25.98;8.20;;;11.90;99.90;;;;;;4853013;29;20034;-84
2021/11/10 12:15:58;;;;;;;22.27;8.02;;;11.90;99.90;;;;;;4863302;29;20045;-84
2021/11/10 12:18:25;;;;;;;23.60;8.52;;;11.90;99.90;;;;;;4863102;29;20590;-83
2021/11/10 12:21:02;;;;;;;22.02;9.07;;;11.90;99.90;;;;;;4845942;29;20116;-81
2021/11/10 12:23:55;;;;;;;22.98;7.55;;;12.00;99.90;;;;;;4846794;29;20045;-84
2021/11/10 12:26:24;;;;;;;27.20;8.23;;;11.90;99.90;;;;;;4852567;29;20507;-83
2021/11/10 12:28:57;;;;;;;19.90;7.60;;;12.00;99.90;;;;;;4844908;29;20174;-82
2021/11/10 12:31:38;;;;;;;22.80;7.60;;;12.00;99.90;;;;;;4858168;29;20097;-83
2021/11/10 12:34:26;;;;;;;17.75;7.70;;;12.10;99.90;;;;;;4860835;29;20424;-83
2021/11/10 12:37:03;;;;;;;23.17;9.15;;;12.00;99.90;;;;;;4865695;29;20132;-82
2021/11/10 12:39:43;;;;;;;30.42;9.13;;;11.90;99.90;;;;;;4877619;29;20108;-84
2021/11/10 12:42:12;;;;;;;22.35;8.20;;;11.90;99.90;;;;;;4866322;29;20025;-84
2021/11/10 12:44:45;;;;;;;20.00;7.57;;;12.00;99.90;;;;;;4882854;29;20550;-84
2021/11/10 12:47:12;;;;;;;16.75;6.50;;;12.00;99.90;;;;;;4880694;29;20127;-83
2021/11/10 12:49:38;;;;;;;18.83;7.13;;;11.90;99.90;;;;;;4878613;29;20041;-83
2021/11/10 12:52:10;;;;;;;17.30;7.75;;;11.90;99.90;;;;;;4882576;29;20156;-82